createdAt,value
2019-03-17T00:00:19.482Z,0.00
2019-03-17T00:01:19.511Z,0.00
2019-03-17T00:02:19.539Z,0.00
2019-03-17T00:03:19.572Z,0.00
2019-03-17T00:04:30.881Z,0.00
2019-03-17T00:05:19.634Z,0.00
2019-03-17T00:06:19.668Z,0.00
2019-03-17T00:07:19.690Z,0.00
2019-03-17T00:08:19.723Z,0.00
2019-03-17T00:09:19.750Z,0.00
2019-03-17T00:10:19.780Z,0.00
2019-03-17T00:11:19.811Z,0.00
2019-03-17T00:12:19.841Z,0.00
2019-03-17T00:13:19.875Z,0.00
2019-03-17T00:14:19.901Z,0.00
2019-03-17T00:15:19.932Z,0.00
2019-03-17T00:16:19.965Z,0.00
2019-03-17T00:17:19.991Z,0.00
2019-03-17T00:18:20.020Z,0.00
2019-03-17T00:19:20.050Z,0.00
2019-03-17T00:20:20.082Z,0.00
2019-03-17T00:21:20.109Z,0.00
2019-03-17T00:22:20.143Z,0.00
2019-03-17T00:23:20.175Z,0.00
2019-03-17T00:24:20.201Z,0.00
2019-03-17T00:25:20.233Z,0.00
2019-03-17T00:26:20.259Z,0.00
2019-03-17T00:27:20.291Z,0.00
2019-03-17T00:28:20.325Z,0.00
2019-03-17T00:29:20.351Z,0.00
2019-03-17T00:30:20.382Z,0.00
2019-03-17T00:31:24.217Z,0.00
2019-03-17T00:32:20.440Z,0.00
2019-03-17T00:33:20.470Z,0.00
2019-03-17T00:34:20.521Z,0.00
2019-03-17T00:35:20.534Z,0.00
2019-03-17T00:36:20.561Z,0.00
2019-03-17T00:37:20.599Z,0.00
2019-03-17T00:38:20.620Z,0.00
2019-03-17T00:39:20.654Z,0.00
2019-03-17T00:40:20.680Z,0.00
2019-03-17T00:41:20.712Z,0.00
2019-03-17T00:42:20.744Z,0.00
2019-03-17T00:43:20.770Z,0.00
2019-03-17T00:44:20.800Z,0.00
2019-03-17T00:45:20.829Z,0.00
2019-03-17T00:46:20.859Z,0.00
2019-03-17T00:47:20.892Z,0.00
2019-03-17T00:48:20.921Z,0.00
2019-03-17T00:49:20.956Z,0.00
2019-03-17T00:50:20.979Z,0.00
2019-03-17T00:51:21.010Z,0.00
2019-03-17T00:52:21.040Z,0.00
2019-03-17T00:53:21.068Z,0.00
2019-03-17T00:54:21.170Z,0.00
2019-03-17T00:55:21.131Z,0.00
2019-03-17T00:56:21.159Z,0.00
2019-03-17T00:57:21.188Z,0.00
2019-03-17T00:58:21.219Z,0.00
2019-03-17T00:59:21.250Z,0.00
2019-03-17T01:00:21.279Z,0.00
2019-03-17T01:01:21.315Z,0.00
2019-03-17T01:02:21.345Z,0.00
2019-03-17T01:03:21.397Z,0.00
2019-03-17T01:04:21.402Z,0.00
2019-03-17T01:05:21.429Z,0.00
2019-03-17T01:06:21.466Z,0.00
2019-03-17T01:07:21.492Z,0.00
2019-03-17T01:08:21.520Z,0.00
2019-03-17T01:09:21.549Z,0.00
2019-03-17T01:10:21.578Z,0.00
2019-03-17T01:11:21.615Z,0.00
2019-03-17T01:12:21.639Z,0.00
2019-03-17T01:13:21.671Z,0.00
2019-03-17T01:14:21.701Z,0.00
2019-03-17T01:15:21.729Z,0.00
2019-03-17T01:16:21.761Z,0.00
2019-03-17T01:17:21.790Z,0.00
2019-03-17T01:18:21.819Z,0.00
2019-03-17T01:19:21.860Z,0.00
2019-03-17T01:20:21.879Z,0.00
2019-03-17T01:21:21.910Z,0.00
2019-03-17T01:22:21.940Z,0.00
2019-03-17T01:23:21.972Z,0.00
2019-03-17T01:24:22.000Z,0.00
2019-03-17T01:25:22.029Z,0.00
2019-03-17T01:26:22.067Z,0.00
2019-03-17T01:27:22.090Z,0.00
2019-03-17T01:28:22.124Z,0.00
2019-03-17T01:29:22.152Z,0.00
2019-03-17T01:30:22.179Z,0.00
2019-03-17T01:31:22.209Z,0.00
2019-03-17T01:32:22.241Z,0.00
2019-03-17T01:33:22.290Z,0.00
2019-03-17T01:34:22.300Z,0.00
2019-03-17T01:35:22.333Z,0.00
2019-03-17T01:36:22.359Z,0.00
2019-03-17T01:37:22.395Z,0.00
2019-03-17T01:38:22.423Z,0.00
2019-03-17T01:39:22.450Z,0.00
2019-03-17T01:40:22.482Z,0.00
2019-03-17T01:41:22.513Z,0.00
2019-03-17T01:42:22.538Z,0.00
2019-03-17T01:43:22.569Z,0.00
2019-03-17T01:44:22.600Z,0.00
2019-03-17T01:45:22.630Z,0.00
2019-03-17T01:46:22.661Z,0.00
2019-03-17T01:47:22.688Z,0.00
2019-03-17T01:48:22.718Z,0.00
2019-03-17T01:49:22.750Z,0.00
2019-03-17T01:50:22.778Z,0.00
2019-03-17T01:51:22.807Z,0.00
2019-03-17T01:52:22.839Z,0.00
2019-03-17T01:53:22.868Z,0.00
2019-03-17T01:54:22.897Z,0.00
2019-03-17T01:55:22.929Z,0.00
2019-03-17T01:56:22.957Z,0.00
2019-03-17T01:57:22.992Z,0.00
2019-03-17T01:58:23.020Z,0.00
2019-03-17T01:59:23.047Z,0.00
2019-03-17T02:00:23.078Z,0.00
2019-03-17T02:01:23.107Z,0.00
2019-03-17T02:02:23.151Z,0.00
2019-03-17T02:03:23.168Z,0.00
2019-03-17T02:04:23.199Z,0.00
2019-03-17T02:05:23.230Z,0.00
2019-03-17T02:06:23.259Z,0.00
2019-03-17T02:07:23.287Z,0.00
2019-03-17T02:08:23.317Z,0.00
2019-03-17T02:09:23.346Z,0.00
2019-03-17T02:10:23.377Z,0.00
2019-03-17T02:11:23.408Z,0.00
2019-03-17T02:12:23.437Z,0.00
2019-03-17T02:13:23.468Z,0.00
2019-03-17T02:14:23.499Z,0.00
2019-03-17T02:15:23.530Z,0.00
2019-03-17T02:16:23.560Z,0.00
2019-03-17T02:17:23.586Z,0.00
2019-03-17T02:18:23.618Z,0.00
2019-03-17T02:19:23.649Z,0.00
2019-03-17T02:20:23.677Z,0.00
2019-03-17T02:21:23.707Z,0.00
2019-03-17T02:22:23.754Z,0.00
2019-03-17T02:23:23.768Z,0.00
2019-03-17T02:24:23.800Z,0.00
2019-03-17T02:25:23.827Z,0.00
2019-03-17T02:26:23.856Z,0.00
2019-03-17T02:27:23.887Z,0.00
2019-03-17T02:28:23.920Z,0.00
2019-03-17T02:29:23.947Z,0.00
2019-03-17T02:30:23.981Z,0.00
2019-03-17T02:31:24.008Z,0.00
2019-03-17T02:32:24.039Z,0.00
2019-03-17T02:33:24.066Z,0.00
2019-03-17T02:34:24.098Z,0.00
2019-03-17T02:35:38.049Z,0.00
2019-03-17T02:36:24.163Z,0.00
2019-03-17T02:37:24.186Z,0.00
2019-03-17T02:38:24.218Z,0.00
2019-03-17T02:39:26.301Z,0.00
2019-03-17T02:40:24.278Z,0.00
2019-03-17T02:41:24.307Z,0.00
2019-03-17T02:42:24.341Z,0.00
2019-03-17T02:43:24.367Z,0.00
2019-03-17T02:44:24.409Z,0.00
2019-03-17T02:45:24.427Z,0.00
2019-03-17T02:46:24.457Z,0.00
2019-03-17T02:47:24.492Z,0.00
2019-03-17T02:48:24.518Z,0.00
2019-03-17T02:49:24.548Z,0.00
2019-03-17T02:50:24.575Z,0.00
2019-03-17T02:51:24.620Z,0.00
2019-03-17T02:52:24.638Z,0.00
2019-03-17T02:53:24.666Z,0.00
2019-03-17T02:54:24.696Z,0.00
2019-03-17T02:55:24.756Z,0.00
2019-03-17T02:56:24.758Z,0.00
2019-03-17T02:57:24.795Z,0.00
2019-03-17T02:58:24.817Z,0.00
2019-03-17T02:59:24.866Z,0.00
2019-03-17T03:00:24.888Z,0.00
2019-03-17T03:01:24.905Z,0.00
2019-03-17T03:02:25.029Z,0.00
2019-03-17T03:03:24.984Z,0.00
2019-03-17T03:04:25.003Z,0.00
2019-03-17T03:05:25.026Z,0.00
2019-03-17T03:06:25.060Z,0.00
2019-03-17T03:07:25.086Z,0.00
2019-03-17T03:08:25.124Z,0.00
2019-03-17T03:09:25.147Z,0.00
2019-03-17T03:10:25.180Z,0.00
2019-03-17T03:11:25.207Z,0.00
2019-03-17T03:12:25.236Z,0.00
2019-03-17T03:13:25.265Z,0.00
2019-03-17T03:14:25.297Z,0.00
2019-03-17T03:15:25.332Z,0.00
2019-03-17T03:16:25.356Z,0.00
2019-03-17T03:17:25.386Z,0.00
2019-03-17T03:18:25.417Z,0.00
2019-03-17T03:19:25.452Z,0.00
2019-03-17T03:20:25.475Z,0.00
2019-03-17T03:21:25.506Z,0.00
2019-03-17T03:22:25.536Z,0.00
2019-03-17T03:23:25.593Z,0.00
2019-03-17T03:24:25.666Z,0.00
2019-03-17T03:25:25.649Z,0.00
2019-03-17T03:26:25.655Z,0.00
2019-03-17T03:27:25.684Z,0.00
2019-03-17T03:28:25.715Z,0.00
2019-03-17T03:29:27.457Z,0.00
2019-03-17T03:30:25.777Z,0.00
2019-03-17T03:31:25.812Z,0.00
2019-03-17T03:32:25.911Z,0.00
2019-03-17T03:33:25.865Z,0.00
2019-03-17T03:34:25.921Z,0.00
2019-03-17T03:35:25.922Z,0.00
2019-03-17T03:36:25.955Z,0.00
2019-03-17T03:37:25.988Z,0.00
2019-03-17T03:38:26.024Z,0.00
2019-03-17T03:39:26.045Z,0.00
2019-03-17T03:40:26.074Z,0.00
2019-03-17T03:41:26.103Z,0.00
2019-03-17T03:42:26.133Z,0.00
2019-03-17T03:43:26.171Z,0.00
2019-03-17T03:44:26.209Z,0.00
2019-03-17T03:45:26.226Z,0.00
2019-03-17T03:46:26.252Z,0.00
2019-03-17T03:47:26.284Z,0.00
2019-03-17T03:48:26.313Z,0.00
2019-03-17T03:49:26.352Z,0.00
2019-03-17T03:50:26.375Z,0.00
2019-03-17T03:51:26.402Z,0.00
2019-03-17T03:52:26.432Z,0.00
2019-03-17T03:53:26.462Z,0.00
2019-03-17T03:54:26.491Z,0.00
2019-03-17T03:55:26.523Z,0.00
2019-03-17T03:56:26.557Z,0.00
2019-03-17T03:57:26.583Z,0.00
2019-03-17T03:58:26.613Z,0.00
2019-03-17T03:59:26.642Z,0.00
2019-03-17T04:00:26.683Z,0.00
2019-03-17T04:01:26.712Z,0.00
2019-03-17T04:02:26.731Z,0.00
2019-03-17T04:03:26.761Z,0.00
2019-03-17T04:04:26.792Z,0.00
2019-03-17T04:05:26.826Z,0.00
2019-03-17T04:06:27.303Z,0.00
2019-03-17T04:07:26.989Z,0.00
2019-03-17T04:08:26.916Z,0.00
2019-03-17T04:09:26.941Z,0.00
2019-03-17T04:10:26.970Z,0.00
2019-03-17T04:11:27.102Z,0.00
2019-03-17T04:12:27.030Z,0.00
2019-03-17T04:13:27.061Z,0.00
2019-03-17T04:14:27.090Z,0.00
2019-03-17T04:15:27.120Z,0.00
2019-03-17T04:16:27.151Z,0.00
2019-03-17T04:17:27.180Z,0.00
2019-03-17T04:18:27.214Z,0.00
2019-03-17T04:19:27.243Z,0.00
2019-03-17T04:20:27.269Z,0.00
2019-03-17T04:21:27.298Z,0.00
2019-03-17T04:22:27.332Z,0.00
2019-03-17T04:23:27.363Z,0.00
2019-03-17T04:24:27.395Z,0.00
2019-03-17T04:25:27.423Z,0.00
2019-03-17T04:26:27.449Z,0.00
2019-03-17T04:27:27.480Z,0.00
2019-03-17T04:28:27.509Z,0.00
2019-03-17T04:29:27.536Z,0.00
2019-03-17T04:30:27.567Z,0.00
2019-03-17T04:31:27.606Z,0.00
2019-03-17T04:32:27.627Z,0.00
2019-03-17T04:33:27.671Z,0.00
2019-03-17T04:34:27.686Z,0.00
2019-03-17T04:35:27.716Z,0.00
2019-03-17T04:36:39.560Z,0.00
2019-03-17T04:37:27.777Z,0.00
2019-03-17T04:38:27.806Z,0.00
2019-03-17T04:39:27.839Z,0.00
2019-03-17T04:40:27.867Z,0.00
2019-03-17T04:41:27.894Z,0.00
2019-03-17T04:42:27.929Z,0.00
2019-03-17T04:43:27.955Z,0.00
2019-03-17T04:44:27.985Z,0.00
2019-03-17T04:45:28.013Z,0.00
2019-03-17T04:46:28.044Z,0.00
2019-03-17T04:47:28.073Z,0.00
2019-03-17T04:48:28.103Z,0.00
2019-03-17T04:49:28.134Z,0.00
2019-03-17T04:50:28.164Z,0.00
2019-03-17T04:51:28.206Z,0.00
2019-03-17T04:52:28.223Z,0.00
2019-03-17T04:53:28.341Z,0.00
2019-03-17T04:54:28.280Z,0.00
2019-03-17T04:55:28.311Z,0.00
2019-03-17T04:56:28.342Z,0.00
2019-03-17T04:57:28.374Z,0.00
2019-03-17T04:58:28.405Z,0.00
2019-03-17T04:59:28.430Z,0.00
2019-03-17T05:00:28.458Z,0.00
2019-03-17T05:01:28.606Z,0.00
2019-03-17T05:02:28.533Z,0.00
2019-03-17T05:03:28.549Z,0.00
2019-03-17T05:04:28.578Z,0.00
2019-03-17T05:05:28.608Z,0.00
2019-03-17T05:06:28.637Z,0.00
2019-03-17T05:07:28.667Z,0.00
2019-03-17T05:08:28.696Z,0.00
2019-03-17T05:09:28.725Z,0.00
2019-03-17T05:10:28.755Z,0.00
2019-03-17T05:11:28.786Z,0.00
2019-03-17T05:12:28.816Z,0.00
2019-03-17T05:13:28.845Z,0.00
2019-03-17T05:14:28.874Z,0.00
2019-03-17T05:15:28.904Z,0.00
2019-03-17T05:16:28.933Z,0.00
2019-03-17T05:17:28.964Z,0.00
2019-03-17T05:18:28.995Z,0.00
2019-03-17T05:19:29.028Z,0.00
2019-03-17T05:20:29.052Z,0.00
2019-03-17T05:21:29.082Z,0.00
2019-03-17T05:22:29.111Z,0.00
2019-03-17T05:23:29.141Z,0.00
2019-03-17T05:24:29.171Z,0.00
2019-03-17T05:25:29.223Z,0.00
2019-03-17T05:26:29.230Z,0.00
2019-03-17T05:27:29.260Z,0.00
2019-03-17T05:28:29.289Z,0.00
2019-03-17T05:29:29.317Z,0.00
2019-03-17T05:30:29.348Z,0.00
2019-03-17T05:31:29.379Z,0.00
2019-03-17T05:32:29.406Z,0.00
2019-03-17T05:33:29.436Z,0.00
2019-03-17T05:34:29.466Z,0.00
2019-03-17T05:35:29.507Z,0.00
2019-03-17T05:36:29.527Z,0.00
2019-03-17T05:37:29.556Z,0.00
2019-03-17T05:38:29.585Z,0.00
2019-03-17T05:39:29.635Z,0.00
2019-03-17T05:40:29.644Z,0.00
2019-03-17T05:41:29.673Z,0.00
2019-03-17T05:42:29.713Z,0.00
2019-03-17T05:43:29.733Z,0.00
2019-03-17T05:44:29.763Z,0.00
2019-03-17T05:45:29.791Z,0.00
2019-03-17T05:46:29.826Z,0.00
2019-03-17T05:47:29.851Z,0.00
2019-03-17T05:48:29.881Z,0.00
2019-03-17T05:49:29.910Z,0.00
2019-03-17T05:50:29.940Z,0.00
2019-03-17T05:51:29.969Z,0.00
2019-03-17T05:52:30.000Z,0.00
2019-03-17T05:53:30.028Z,0.00
2019-03-17T05:54:30.059Z,0.00
2019-03-17T05:55:30.094Z,0.00
2019-03-17T05:56:30.118Z,0.00
2019-03-17T05:57:30.148Z,0.00
2019-03-17T05:58:30.177Z,0.00
2019-03-17T05:59:30.209Z,0.00
2019-03-17T06:00:30.236Z,0.00
2019-03-17T06:01:30.266Z,0.00
2019-03-17T06:02:30.295Z,0.00
2019-03-17T06:03:30.326Z,0.00
2019-03-17T06:04:30.355Z,0.00
2019-03-17T06:05:30.529Z,0.00
2019-03-17T06:06:30.415Z,0.00
2019-03-17T06:07:30.444Z,0.00
2019-03-17T06:08:30.473Z,0.00
2019-03-17T06:09:30.502Z,0.00
2019-03-17T06:10:30.533Z,0.00
2019-03-17T06:11:30.563Z,0.00
2019-03-17T06:12:30.593Z,0.00
2019-03-17T06:13:30.623Z,5.63
2019-03-17T06:14:30.671Z,5.63
2019-03-17T06:15:30.680Z,5.63
2019-03-17T06:16:30.716Z,5.63
2019-03-17T06:17:30.742Z,5.63
2019-03-17T06:18:30.770Z,5.63
2019-03-17T06:19:30.803Z,5.63
2019-03-17T06:20:30.830Z,5.63
2019-03-17T06:21:30.860Z,5.63
2019-03-17T06:22:30.891Z,5.63
2019-03-17T06:23:30.919Z,5.63
2019-03-17T06:24:30.950Z,5.63
2019-03-17T06:25:30.980Z,5.63
2019-03-17T06:26:31.014Z,5.63
2019-03-17T06:27:31.045Z,5.63
2019-03-17T06:28:31.069Z,5.63
2019-03-17T06:29:31.103Z,5.63
2019-03-17T06:30:31.128Z,5.63
2019-03-17T06:31:31.157Z,5.63
2019-03-17T06:32:31.188Z,0.00
2019-03-17T06:33:31.221Z,0.00
2019-03-17T06:34:31.248Z,0.00
2019-03-17T06:35:31.278Z,0.00
2019-03-17T06:36:31.875Z,0.00
2019-03-17T06:37:31.522Z,0.00
2019-03-17T06:38:31.367Z,0.00
2019-03-17T06:39:31.396Z,0.00
2019-03-17T06:40:31.426Z,0.00
2019-03-17T06:41:31.457Z,0.00
2019-03-17T06:42:31.485Z,0.00
2019-03-17T06:43:31.515Z,0.00
2019-03-17T06:44:31.547Z,0.00
2019-03-17T06:45:31.574Z,0.00
2019-03-17T06:46:38.765Z,0.00
2019-03-17T06:48:35.645Z,5.63
2019-03-17T06:49:35.652Z,5.63
2019-03-17T06:51:39.680Z,5.63
2019-03-17T06:52:39.707Z,5.63
2019-03-17T06:54:41.747Z,5.63
2019-03-17T06:55:41.809Z,5.63
2019-03-17T06:57:33.693Z,5.63
2019-03-17T06:58:33.706Z,11.25
2019-03-17T07:00:35.710Z,11.25
2019-03-17T07:01:35.733Z,11.25
2019-03-17T07:03:37.768Z,11.25
2019-03-17T07:04:37.786Z,11.25
2019-03-17T07:06:39.779Z,16.88
2019-03-17T07:07:44.183Z,16.88
2019-03-17T07:09:41.831Z,22.50
2019-03-17T07:10:41.837Z,22.50
2019-03-17T07:12:43.870Z,22.50
2019-03-17T07:13:43.879Z,16.88
2019-03-17T07:15:45.883Z,16.88
2019-03-17T07:16:45.911Z,16.88
2019-03-17T07:18:47.958Z,16.88
2019-03-17T07:19:47.945Z,16.88
2019-03-17T07:21:49.959Z,16.88
2019-03-17T07:22:49.977Z,16.88
2019-03-17T07:24:51.997Z,16.88
2019-03-17T07:25:52.007Z,16.88
2019-03-17T07:27:44.002Z,16.88
2019-03-17T07:28:43.970Z,16.88
2019-03-17T07:30:45.978Z,22.50
2019-03-17T07:31:46.000Z,22.50
2019-03-17T07:33:48.056Z,22.50
2019-03-17T07:34:48.034Z,22.50
2019-03-17T07:36:50.038Z,22.50
2019-03-17T07:37:56.815Z,22.50
2019-03-17T07:39:52.069Z,22.50
2019-03-17T07:40:52.096Z,22.50
2019-03-17T07:42:54.122Z,16.88
2019-03-17T07:43:54.128Z,16.88
2019-03-17T07:45:56.137Z,16.88
2019-03-17T07:46:56.163Z,22.50
2019-03-17T07:48:58.215Z,28.13
2019-03-17T07:49:58.197Z,33.75
2019-03-17T07:52:00.221Z,33.75
2019-03-17T07:53:00.358Z,33.75
2019-03-17T07:55:02.254Z,28.13
2019-03-17T07:56:02.281Z,28.13
2019-03-17T07:57:54.237Z,28.13
2019-03-17T07:58:54.241Z,28.13
2019-03-17T08:00:56.248Z,28.13
2019-03-17T08:01:56.272Z,28.13
2019-03-17T08:03:58.318Z,28.13
2019-03-17T08:04:58.307Z,28.13
2019-03-17T08:07:00.314Z,28.13
2019-03-17T08:08:09.341Z,28.13
2019-03-17T08:10:02.351Z,28.13
2019-03-17T08:11:02.373Z,28.13
2019-03-17T08:13:04.897Z,28.13
2019-03-17T08:14:04.895Z,28.13
2019-03-17T08:15:04.930Z,28.13
2019-03-17T08:16:04.962Z,33.75
2019-03-17T08:17:04.987Z,33.75
2019-03-17T08:18:05.018Z,33.75
2019-03-17T08:19:05.048Z,33.75
2019-03-17T08:20:05.080Z,33.75
2019-03-17T08:21:05.108Z,33.75
2019-03-17T08:22:05.144Z,33.75
2019-03-17T08:23:05.172Z,33.75
2019-03-17T08:24:05.208Z,33.75
2019-03-17T08:25:05.234Z,33.75
2019-03-17T08:26:05.263Z,33.75
2019-03-17T08:27:05.293Z,33.75
2019-03-17T08:28:05.324Z,33.75
2019-03-17T08:29:05.355Z,39.38
2019-03-17T08:30:05.384Z,39.38
2019-03-17T08:31:05.414Z,45.00
2019-03-17T08:32:05.451Z,45.00
2019-03-17T08:33:05.480Z,45.00
2019-03-17T08:34:05.507Z,45.00
2019-03-17T08:35:05.651Z,50.63
2019-03-17T08:36:05.573Z,50.63
2019-03-17T08:37:05.606Z,45.00
2019-03-17T08:38:05.631Z,45.00
2019-03-17T08:39:05.662Z,45.00
2019-03-17T08:40:05.694Z,50.63
2019-03-17T08:41:05.728Z,61.88
2019-03-17T08:42:05.756Z,61.88
2019-03-17T08:43:05.787Z,56.25
2019-03-17T08:44:05.823Z,61.88
2019-03-17T08:45:05.850Z,61.88
2019-03-17T08:46:05.882Z,56.25
2019-03-17T08:47:05.912Z,61.88
2019-03-17T08:48:05.943Z,67.50
2019-03-17T08:49:05.973Z,61.88
2019-03-17T08:50:06.006Z,56.25
2019-03-17T08:51:06.040Z,50.63
2019-03-17T08:52:06.069Z,50.63
2019-03-17T08:53:06.101Z,56.25
2019-03-17T08:54:06.136Z,50.63
2019-03-17T08:55:06.162Z,50.63
2019-03-17T08:56:06.196Z,50.63
2019-03-17T08:57:06.255Z,50.63
2019-03-17T08:58:06.256Z,50.63
2019-03-17T08:59:06.289Z,50.63
2019-03-17T09:00:06.324Z,56.25
2019-03-17T09:01:06.404Z,56.25
2019-03-17T09:02:06.387Z,50.63
2019-03-17T09:03:06.428Z,50.63
2019-03-17T09:04:06.449Z,56.25
2019-03-17T09:05:06.480Z,50.63
2019-03-17T09:06:06.512Z,50.63
2019-03-17T09:07:06.543Z,56.25
2019-03-17T09:08:06.577Z,50.63
2019-03-17T09:09:06.608Z,50.63
2019-03-17T09:10:06.640Z,50.63
2019-03-17T09:11:06.671Z,50.63
2019-03-17T09:12:06.705Z,50.63
2019-03-17T09:13:06.735Z,50.63
2019-03-17T09:14:06.772Z,50.63
2019-03-17T09:15:06.800Z,50.63
2019-03-17T09:16:06.831Z,50.63
2019-03-17T09:17:14.374Z,50.63
2019-03-17T09:18:06.899Z,50.63
2019-03-17T09:19:06.929Z,56.25
2019-03-17T09:20:06.966Z,67.50
2019-03-17T09:21:06.997Z,61.88
2019-03-17T09:22:07.024Z,56.25
2019-03-17T09:23:07.059Z,56.25
2019-03-17T09:24:16.746Z,56.25
2019-03-17T09:25:07.122Z,56.25
2019-03-17T09:26:07.160Z,56.25
2019-03-17T09:27:07.194Z,56.25
2019-03-17T09:28:07.226Z,50.63
2019-03-17T09:29:07.254Z,50.63
2019-03-17T09:30:07.286Z,50.63
2019-03-17T09:31:07.675Z,50.63
2019-03-17T09:32:07.351Z,56.25
2019-03-17T09:33:07.387Z,56.25
2019-03-17T09:34:07.418Z,61.88
2019-03-17T09:35:07.453Z,67.50
2019-03-17T09:36:07.484Z,78.75
2019-03-17T09:37:07.517Z,78.75
2019-03-17T09:38:07.548Z,61.88
2019-03-17T09:39:07.585Z,61.88
2019-03-17T09:40:07.615Z,61.88
2019-03-17T09:41:07.692Z,61.88
2019-03-17T09:42:07.681Z,67.50
2019-03-17T09:43:07.715Z,73.13
2019-03-17T09:44:07.750Z,56.25
2019-03-17T09:45:07.780Z,73.13
2019-03-17T09:46:07.846Z,78.75
2019-03-17T09:47:07.845Z,73.13
2019-03-17T09:48:07.880Z,73.13
2019-03-17T09:49:07.912Z,78.75
2019-03-17T09:50:07.962Z,78.75
2019-03-17T09:51:07.979Z,84.38
2019-03-17T09:52:08.011Z,78.75
2019-03-17T09:53:08.045Z,78.75
2019-03-17T09:54:08.092Z,61.88
2019-03-17T09:55:08.111Z,61.88
2019-03-17T09:56:08.144Z,56.25
2019-03-17T09:57:08.281Z,50.63
2019-03-17T09:58:08.210Z,39.38
2019-03-17T09:59:08.250Z,33.75
2019-03-17T10:00:08.279Z,33.75
2019-03-17T10:01:08.310Z,33.75
2019-03-17T10:02:08.346Z,28.13
2019-03-17T10:03:08.378Z,28.13
2019-03-17T10:04:08.415Z,28.13
2019-03-17T10:05:08.454Z,28.13
2019-03-17T10:06:08.478Z,28.13
2019-03-17T10:07:08.509Z,28.13
2019-03-17T10:08:08.545Z,22.50
2019-03-17T10:09:08.577Z,16.88
2019-03-17T10:10:08.611Z,22.50
2019-03-17T10:11:10.689Z,22.50
2019-03-17T10:12:08.677Z,22.50
2019-03-17T10:13:08.710Z,22.50
2019-03-17T10:14:08.745Z,22.50
2019-03-17T10:15:08.780Z,22.50
2019-03-17T10:16:08.815Z,22.50
2019-03-17T10:17:08.858Z,22.50
2019-03-17T10:18:08.875Z,22.50
2019-03-17T10:19:08.910Z,16.88
2019-03-17T10:20:08.940Z,16.88
2019-03-17T10:21:08.972Z,16.88
2019-03-17T10:22:09.006Z,11.25
2019-03-17T10:23:09.039Z,11.25
2019-03-17T10:24:09.072Z,11.25
2019-03-17T10:25:09.107Z,11.25
2019-03-17T10:26:09.142Z,11.25
2019-03-17T10:27:09.170Z,11.25
2019-03-17T10:28:09.201Z,11.25
2019-03-17T10:29:09.233Z,11.25
2019-03-17T10:30:09.266Z,11.25
2019-03-17T10:31:09.298Z,11.25
2019-03-17T10:32:09.333Z,11.25
2019-03-17T10:33:09.365Z,11.25
2019-03-17T10:34:09.395Z,16.88
2019-03-17T10:35:09.429Z,16.88
2019-03-17T10:36:09.462Z,16.88
2019-03-17T10:37:09.495Z,16.88
2019-03-17T10:38:09.526Z,16.88
2019-03-17T10:39:12.753Z,16.88
2019-03-17T10:40:09.592Z,16.88
2019-03-17T10:41:09.626Z,16.88
2019-03-17T10:42:09.659Z,11.25
2019-03-17T10:43:09.689Z,11.25
2019-03-17T10:44:09.721Z,11.25
2019-03-17T10:45:09.754Z,11.25
2019-03-17T10:46:09.794Z,11.25
2019-03-17T10:47:09.819Z,5.63
2019-03-17T10:48:09.852Z,11.25
2019-03-17T10:49:09.884Z,5.63
2019-03-17T10:50:09.917Z,5.63
2019-03-17T10:51:09.949Z,5.63
2019-03-17T10:52:09.981Z,5.63
2019-03-17T10:53:10.013Z,11.25
2019-03-17T10:54:10.048Z,16.88
2019-03-17T10:55:10.081Z,11.25
2019-03-17T10:56:10.112Z,11.25
2019-03-17T10:57:10.143Z,11.25
2019-03-17T10:58:10.190Z,11.25
2019-03-17T10:59:10.209Z,16.88
2019-03-17T11:00:10.243Z,16.88
2019-03-17T11:01:10.278Z,16.88
2019-03-17T11:02:10.306Z,22.50
2019-03-17T11:03:10.341Z,16.88
2019-03-17T11:04:10.390Z,16.88
2019-03-17T11:05:10.402Z,11.25
2019-03-17T11:06:10.436Z,11.25
2019-03-17T11:07:10.472Z,11.25
2019-03-17T11:08:10.502Z,11.25
2019-03-17T11:09:10.537Z,5.63
2019-03-17T11:10:10.565Z,16.88
2019-03-17T11:11:12.222Z,5.63
2019-03-17T11:12:10.632Z,5.63
2019-03-17T11:13:10.662Z,5.63
2019-03-17T11:14:10.694Z,5.63
2019-03-17T11:15:10.726Z,5.63
2019-03-17T11:16:10.763Z,5.63
2019-03-17T11:17:10.792Z,11.25
2019-03-17T11:18:10.828Z,11.25
2019-03-17T11:19:10.859Z,11.25
2019-03-17T11:20:10.892Z,11.25
2019-03-17T11:21:10.923Z,11.25
2019-03-17T11:22:10.954Z,11.25
2019-03-17T11:23:10.987Z,11.25
2019-03-17T11:24:11.019Z,11.25
2019-03-17T11:25:11.050Z,22.50
2019-03-17T11:26:11.085Z,11.25
2019-03-17T11:27:11.119Z,11.25
2019-03-17T11:28:11.150Z,11.25
2019-03-17T11:29:11.181Z,22.50
2019-03-17T11:30:11.214Z,11.25
2019-03-17T11:31:11.249Z,11.25
2019-03-17T11:32:11.281Z,11.25
2019-03-17T11:33:11.365Z,16.88
2019-03-17T11:34:11.532Z,16.88
2019-03-17T11:35:11.378Z,22.50
2019-03-17T11:36:11.409Z,22.50
2019-03-17T11:37:11.440Z,22.50
2019-03-17T11:38:11.477Z,16.88
2019-03-17T11:39:11.506Z,16.88
2019-03-17T11:40:11.539Z,16.88
2019-03-17T11:41:11.572Z,16.88
2019-03-17T11:42:11.602Z,22.50
2019-03-17T11:43:11.638Z,16.88
2019-03-17T11:44:11.673Z,16.88
2019-03-17T11:45:11.708Z,16.88
2019-03-17T11:46:11.732Z,11.25
2019-03-17T11:47:11.763Z,11.25
2019-03-17T11:48:11.797Z,11.25
2019-03-17T11:49:11.854Z,5.63
2019-03-17T11:50:11.862Z,5.63
2019-03-17T11:51:11.975Z,5.63
2019-03-17T11:52:11.927Z,5.63
2019-03-17T11:53:11.965Z,5.63
2019-03-17T11:54:11.990Z,11.25
2019-03-17T11:55:12.024Z,5.63
2019-03-17T11:56:12.055Z,5.63
2019-03-17T11:57:12.088Z,5.63
2019-03-17T11:58:12.132Z,5.63
2019-03-17T11:59:12.170Z,5.63
2019-03-17T12:00:12.204Z,5.63
2019-03-17T12:01:12.245Z,5.63
2019-03-17T12:02:12.250Z,5.63
2019-03-17T12:03:12.283Z,5.63
2019-03-17T12:04:12.347Z,5.63
2019-03-17T12:05:12.346Z,5.63
2019-03-17T12:06:12.381Z,5.63
2019-03-17T12:07:12.412Z,5.63
2019-03-17T12:08:12.462Z,5.63
2019-03-17T12:09:12.474Z,11.25
2019-03-17T12:10:12.507Z,11.25
2019-03-17T12:11:12.541Z,16.88
2019-03-17T12:12:12.572Z,11.25
2019-03-17T12:13:12.607Z,11.25
2019-03-17T12:14:12.639Z,11.25
2019-03-17T12:15:12.671Z,11.25
2019-03-17T12:16:12.703Z,11.25
2019-03-17T12:17:12.734Z,11.25
2019-03-17T12:18:12.821Z,11.25
2019-03-17T12:19:12.797Z,5.63
2019-03-17T12:20:12.845Z,11.25
2019-03-17T12:21:12.865Z,5.63
2019-03-17T12:22:12.895Z,11.25
2019-03-17T12:23:12.928Z,5.63
2019-03-17T12:24:12.959Z,5.63
2019-03-17T12:25:12.992Z,11.25
2019-03-17T12:26:13.027Z,11.25
2019-03-17T12:27:13.057Z,11.25
2019-03-17T12:28:13.089Z,11.25
2019-03-17T12:29:13.122Z,11.25
2019-03-17T12:30:13.151Z,11.25
2019-03-17T12:31:13.186Z,5.63
2019-03-17T12:32:13.217Z,5.63
2019-03-17T12:33:13.254Z,5.63
2019-03-17T12:34:13.286Z,5.63
2019-03-17T12:35:13.314Z,5.63
2019-03-17T12:36:13.347Z,5.63
2019-03-17T12:37:13.380Z,5.63
2019-03-17T12:38:13.411Z,5.63
2019-03-17T12:39:13.443Z,5.63
2019-03-17T12:40:13.476Z,5.63
2019-03-17T12:41:13.509Z,5.63
2019-03-17T12:42:13.705Z,5.63
2019-03-17T12:43:13.571Z,5.63
2019-03-17T12:44:13.652Z,5.63
2019-03-17T12:45:13.638Z,5.63
2019-03-17T12:46:13.670Z,5.63
2019-03-17T12:47:13.701Z,5.63
2019-03-17T12:48:13.735Z,5.63
2019-03-17T12:49:13.766Z,5.63
2019-03-17T12:50:13.799Z,5.63
2019-03-17T12:51:13.833Z,0.00
2019-03-17T12:52:13.864Z,0.00
2019-03-17T12:53:13.895Z,0.00
2019-03-17T12:54:13.928Z,0.00
2019-03-17T12:55:13.961Z,0.00
2019-03-17T12:56:13.993Z,0.00
2019-03-17T12:57:14.028Z,0.00
2019-03-17T12:58:15.020Z,0.00
2019-03-17T12:59:14.092Z,0.00
2019-03-17T13:00:14.124Z,0.00
2019-03-17T13:01:14.156Z,0.00
2019-03-17T13:02:14.188Z,0.00
2019-03-17T13:03:14.221Z,0.00
2019-03-17T13:04:14.252Z,0.00
2019-03-17T13:05:14.285Z,5.63
2019-03-17T13:06:14.315Z,5.63
2019-03-17T13:07:14.347Z,0.00
2019-03-17T13:08:14.380Z,0.00
2019-03-17T13:09:14.411Z,5.63
2019-03-17T13:10:15.962Z,5.63
2019-03-17T13:11:14.475Z,0.00
2019-03-17T13:12:14.508Z,0.00
2019-03-17T13:13:14.538Z,0.00
2019-03-17T13:14:14.573Z,0.00
2019-03-17T13:15:14.602Z,0.00
2019-03-17T13:16:14.636Z,0.00
2019-03-17T13:17:14.676Z,0.00
2019-03-17T13:18:14.695Z,0.00
2019-03-17T13:19:14.727Z,0.00
2019-03-17T13:20:14.762Z,0.00
2019-03-17T13:21:14.789Z,0.00
2019-03-17T13:22:14.822Z,0.00
2019-03-17T13:23:14.853Z,0.00
2019-03-17T13:24:14.885Z,0.00
2019-03-17T13:25:14.924Z,0.00
2019-03-17T13:26:14.948Z,0.00
2019-03-17T13:27:14.977Z,0.00
2019-03-17T13:28:15.010Z,0.00
2019-03-17T13:29:15.043Z,0.00
2019-03-17T13:30:15.076Z,0.00
2019-03-17T13:31:15.104Z,0.00
2019-03-17T13:32:15.133Z,0.00
2019-03-17T13:33:15.166Z,0.00
2019-03-17T13:34:15.197Z,0.00
2019-03-17T13:35:15.231Z,0.00
2019-03-17T13:36:15.258Z,0.00
2019-03-17T13:37:15.289Z,0.00
2019-03-17T13:38:15.322Z,0.00
2019-03-17T13:39:15.359Z,0.00